Time;durP1;ratioP1;P1;durP2;ratioP2;P2;SDS_P1;SDS_P2;PMS_P1;PMS_P2;Temp;Humidity;BMP_temperature;BMP_pressure;BME280_temperature;BME280_humidity;BME280_pressure;Samples;Min_cycle;Max_cycle;Signal;HPM_P1;HPM_P2
2021/04/10 00:01:41;;;;;;;8.83;5.27;;;;;;;5.26;76.46;100585.08;115855;1209;61805;-80
2021/04/10 00:04:10;;;;;;;10.37;6.03;;;;;;;5.28;76.76;100583.13;115815;1209;62869;-80
2021/04/10 00:06:37;;;;;;;13.40;5.70;;;;;;;5.30;76.04;100572.47;115783;1209;62461;-80
2021/04/10 00:09:08;;;;;;;8.63;5.73;;;;;;;5.30;76.82;100580.37;115824;1209;62233;-80
2021/04/10 00:11:35;;;;;;;11.40;6.65;;;;;;;5.33;76.68;100579.24;115777;1209;63191;-80
2021/04/10 00:14:08;;;;;;;9.43;5.27;;;;;;;5.31;76.27;100580.23;115831;1209;62440;-79
2021/04/10 00:16:35;;;;;;;10.27;5.50;;;;;;;5.35;76.42;100574.67;115838;1209;62402;-80
2021/04/10 00:19:03;;;;;;;8.60;5.40;;;;;;;5.36;76.10;100579.80;115836;1209;62721;-80
2021/04/10 00:21:31;;;;;;;11.93;6.47;;;;;;;5.34;75.64;100580.92;115871;1209;62231;-80
2021/04/10 00:23:57;;;;;;;10.90;5.30;;;;;;;5.32;76.34;100583.69;115853;1209;62586;-80
2021/04/10 00:26:25;;;;;;;10.73;5.87;;;;;;;5.33;76.32;100590.59;115861;1209;61725;-79
2021/04/10 00:28:54;;;;;;;7.87;4.83;;;;;;;5.35;77.09;100587.83;115791;1209;62460;-80
2021/04/10 00:31:20;;;;;;;10.23;5.53;;;;;;;5.36;76.23;100584.23;115839;1209;61943;-79
2021/04/10 00:33:47;;;;;;;13.40;5.50;;;;;;;5.36;76.86;100597.39;115824;1209;62384;-80
2021/04/10 00:36:14;;;;;;;7.90;5.25;;;;;;;5.35;76.37;100603.60;115860;1209;62767;-80
2021/04/10 00:38:40;;;;;;;11.70;5.53;;;;;;;5.30;76.43;100612.75;115816;1209;62983;-80
2021/04/10 00:41:09;;;;;;;10.73;5.13;;;;;;;5.30;76.62;100614.56;115842;1209;62196;-79
2021/04/10 00:43:35;;;;;;;13.97;5.97;;;;;;;5.28;77.06;100609.43;115865;1209;62268;-79
2021/04/10 00:46:02;;;;;;;10.40;6.07;;;;;;;5.27;77.16;100601.67;115833;1209;62270;-79
2021/04/10 00:48:29;;;;;;;9.10;6.10;;;;;;;5.26;76.60;100592.96;115854;1209;62197;-79
2021/04/10 00:51:01;;;;;;;10.20;6.20;;;;;;;5.26;76.98;100600.85;115861;1209;63316;-79
2021/04/10 00:53:30;;;;;;;9.00;5.40;;;;;;;5.22;77.00;100591.59;115800;1209;62263;-79
2021/04/10 00:55:59;;;;;;;8.80;4.95;;;;;;;5.15;76.62;100587.88;115837;1209;62516;-79
2021/04/10 00:58:26;;;;;;;7.50;5.05;;;;;;;5.08;76.55;100592.06;115838;1209;62812;-78
2021/04/10 01:00:53;;;;;;;8.60;5.35;;;;;;;5.01;77.20;100588.32;115793;1209;63115;-79
2021/04/10 01:03:21;;;;;;;5.37;3.77;;;;;;;4.95;77.49;100586.25;115823;1209;62171;-79
2021/04/10 01:05:48;;;;;;;7.87;4.73;;;;;;;4.89;78.25;100585.86;115846;1209;63294;-79
2021/04/10 01:08:15;;;;;;;8.33;5.53;;;;;;;4.84;78.19;100580.17;115770;1209;62482;-79
2021/04/10 01:10:42;;;;;;;15.93;6.60;;;;;;;4.83;78.41;100578.53;115870;1209;62354;-78
2021/04/10 01:13:33;;;;;;;10.75;5.70;;;;;;;4.80;78.96;100570.94;115756;1209;62391;-78
2021/04/10 01:16:25;;;;;;;7.80;5.10;;;;;;;4.80;78.59;100562.20;115880;1209;62596;-79
2021/04/10 01:19:14;;;;;;;10.83;5.67;;;;;;;4.81;79.36;100563.88;115831;1209;62298;-79
2021/04/10 01:21:49;;;;;;;10.60;6.07;;;;;;;4.83;79.16;100568.02;115813;1209;62294;-79
2021/04/10 01:24:40;;;;;;;8.10;4.60;;;;;;;4.84;79.29;100569.66;115838;1209;62459;-79
2021/04/10 01:27:07;;;;;;;8.00;4.47;;;;;;;4.83;78.93;100562.77;115791;1209;63721;-79
2021/04/10 01:29:41;;;;;;;12.63;5.70;;;;;;;4.85;79.21;100555.57;115864;1209;62145;-80
2021/04/10 01:32:10;;;;;;;10.13;5.60;;;;;;;4.86;79.55;100551.13;115808;1209;63026;-80
2021/04/10 01:34:41;;;;;;;6.33;3.53;;;;;;;4.83;79.50;100549.63;115752;1209;62496;-80
2021/04/10 01:37:17;;;;;;;4.47;2.93;;;;;;;4.81;80.08;100548.11;115784;1209;62165;-79
2021/04/10 01:39:46;;;;;;;9.87;5.10;;;;;;;4.79;79.76;100544.80;115902;1209;62363;-79
2021/04/10 01:42:17;;;;;;;12.33;5.60;;;;;;;4.77;79.57;100541.48;115865;1209;62287;-79
2021/04/10 01:44:45;;;;;;;13.90;6.07;;;;;;;4.77;80.30;100552.81;115824;1209;62369;-80
2021/04/10 01:47:15;;;;;;;8.03;4.60;;;;;;;4.77;80.27;100546.73;115779;1209;62316;-79
2021/04/10 01:49:44;;;;;;;8.87;4.67;;;;;;;4.78;80.19;100548.38;115864;1209;64126;-80
2021/04/10 01:52:11;;;;;;;10.27;4.60;;;;;;;4.79;79.90;100556.13;115794;1209;62314;-79
2021/04/10 01:54:39;;;;;;;5.70;3.50;;;;;;;4.79;80.24;100565.81;115817;1209;62172;-80
2021/04/10 01:57:07;;;;;;;7.93;3.93;;;;;;;4.77;79.86;100568.58;115760;1209;62910;-80
2021/04/10 01:59:35;;;;;;;5.67;3.27;;;;;;;4.75;79.72;100570.52;115858;1209;62277;-80
2021/04/10 02:02:03;;;;;;;10.90;3.70;;;;;;;4.72;80.25;100576.06;115857;1207;62280;-80
2021/04/10 02:04:39;;;;;;;8.90;3.33;;;;;;;4.67;79.55;100565.95;115843;1209;62404;-79
2021/04/10 02:07:08;;;;;;;6.20;3.03;;;;;;;4.67;79.46;100567.75;115877;1209;62351;-79
2021/04/10 02:09:37;;;;;;;6.63;3.20;;;;;;;4.69;79.73;100565.81;115846;1209;64200;-79
2021/04/10 02:12:05;;;;;;;6.20;3.30;;;;;;;4.72;80.42;100570.81;115784;1209;62353;-79
2021/04/10 02:14:37;;;;;;;6.43;2.40;;;;;;;4.69;79.88;100571.07;115843;1209;62315;-79
2021/04/10 02:17:04;;;;;;;4.30;2.00;;;;;;;4.66;79.78;100566.11;115793;1208;62472;-79
2021/04/10 02:19:30;;;;;;;7.17;2.07;;;;;;;4.62;80.95;100570.80;115871;1209;62249;-79
2021/04/10 02:21:58;;;;;;;5.27;2.57;;;;;;;4.60;80.49;100571.92;115802;1209;62385;-79
2021/04/10 02:24:25;;;;;;;5.10;2.70;;;;;;;4.58;80.87;100573.86;115848;1209;62358;-79
2021/04/10 02:26:52;;;;;;;7.67;2.87;;;;;;;4.58;80.45;100568.60;115809;1209;62435;-80
2021/04/10 02:29:18;;;;;;;7.63;2.80;;;;;;;4.58;80.54;100585.19;115846;1209;62382;-80
2021/04/10 02:31:54;;;;;;;7.60;3.37;;;;;;;4.59;80.62;100581.61;115831;1209;61764;-80
2021/04/10 02:34:24;;;;;;;5.63;2.40;;;;;;;4.58;80.41;100585.19;115864;1209;63580;-80
2021/04/10 02:36:55;;;;;;;7.20;1.90;;;;;;;4.56;80.50;100592.38;115848;1209;62193;-80
2021/04/10 02:39:23;;;;;;;5.05;2.60;;;;;;;4.56;80.09;100592.38;115855;1209;62893;-80
2021/04/10 02:41:53;;;;;;;9.20;3.40;;;;;;;4.58;81.07;100600.95;115861;1209;64109;-80
2021/04/10 02:44:34;;;;;;;5.20;2.53;;;;;;;4.61;80.42;100602.46;115834;1209;61996;-80
2021/04/10 02:47:06;;;;;;;11.30;4.20;;;;;;;4.64;79.92;100605.66;115838;1209;62903;-80
2021/04/10 02:49:38;;;;;;;8.97;4.27;;;;;;;4.69;80.60;100605.23;115771;1209;62820;-79
2021/04/10 02:52:07;;;;;;;5.80;2.40;;;;;;;4.74;80.52;100610.92;115843;1209;62364;-79
2021/04/10 02:54:38;;;;;;;9.40;3.63;;;;;;;4.75;80.77;100609.11;115815;1209;62784;-79
2021/04/10 02:57:12;;;;;;;13.23;3.50;;;;;;;4.76;80.86;100616.87;115797;1209;62658;-80
2021/04/10 02:59:40;;;;;;;6.80;3.27;;;;;;;4.76;80.63;100616.87;115794;1207;62352;-78
2021/04/10 03:02:10;;;;;;;3.77;1.83;;;;;;;4.73;81.28;100618.93;115782;1209;62427;-79
2021/04/10 03:04:40;;;;;;;2.90;1.63;;;;;;;4.68;81.36;100621.98;115843;1209;62548;-78
2021/04/10 03:07:09;;;;;;;3.60;2.33;;;;;;;4.63;81.58;100625.03;115841;1209;62320;-79
2021/04/10 03:09:41;;;;;;;5.10;1.90;;;;;;;4.58;81.60;100621.14;115786;1209;62257;-79
2021/04/10 03:12:17;;;;;;;6.30;2.23;;;;;;;4.55;81.72;100626.66;115837;1209;62864;-78
2021/04/10 03:14:46;;;;;;;5.63;2.50;;;;;;;4.54;82.14;100628.46;115756;1209;62853;-79
2021/04/10 03:17:24;;;;;;;4.23;2.10;;;;;;;4.54;82.29;100625.01;115869;1209;62207;-78
2021/04/10 03:19:53;;;;;;;8.77;3.47;;;;;;;4.53;82.88;100623.34;115857;1209;62808;-79
2021/04/10 03:22:19;;;;;;;8.93;3.70;;;;;;;4.56;82.68;100618.64;115837;1209;62199;-79
2021/04/10 03:24:46;;;;;;;8.20;3.97;;;;;;;4.59;81.87;100628.04;115880;1209;62938;-79
2021/04/10 03:27:14;;;;;;;6.10;3.80;;;;;;;4.61;82.60;100623.48;115828;1209;62105;-78
2021/04/10 03:29:41;;;;;;;5.10;3.40;;;;;;;4.62;82.72;100623.35;115871;1209;62119;-78
2021/04/10 03:32:22;;;;;;;7.23;3.63;;;;;;;4.64;82.32;100615.34;115841;1209;63551;-78
2021/04/10 03:34:49;;;;;;;7.43;2.87;;;;;;;4.64;82.92;100620.59;115855;1209;62543;-79
2021/04/10 03:37:15;;;;;;;8.10;3.10;;;;;;;4.62;82.77;100623.35;115852;1209;62565;-79
2021/04/10 03:39:42;;;;;;;4.95;3.50;;;;;;;4.63;82.56;100629.43;115748;1209;62528;-79
2021/04/10 03:42:09;;;;;;;6.57;3.57;;;;;;;4.65;82.19;100630.13;115825;1209;62454;-78
2021/04/10 03:44:36;;;;;;;7.03;3.57;;;;;;;4.69;82.42;100623.63;115825;1209;62752;-78
2021/04/10 03:47:22;;;;;;;8.30;4.17;;;;;;;4.66;82.41;100629.17;115889;1209;62556;-78
2021/04/10 03:49:49;;;;;;;7.90;3.87;;;;;;;4.65;82.26;100630.98;115810;1209;62392;-79
2021/04/10 03:52:15;;;;;;;5.80;3.73;;;;;;;4.65;82.83;100635.38;115817;1209;62152;-77
2021/04/10 03:54:42;;;;;;;7.90;3.40;;;;;;;4.65;82.88;100627.49;115891;1209;62658;-78
2021/04/10 03:57:08;;;;;;;6.37;2.77;;;;;;;4.62;83.06;100633.04;115801;1209;62742;-78
2021/04/10 03:59:35;;;;;;;6.50;2.60;;;;;;;4.61;82.79;100633.99;115862;1209;62979;-78
2021/04/10 04:02:02;;;;;;;5.10;3.13;;;;;;;4.58;82.90;100635.10;115827;1208;62167;-78
2021/04/10 04:04:28;;;;;;;6.80;3.30;;;;;;;4.59;83.41;100635.92;115832;1209;62508;-78
2021/04/10 04:06:55;;;;;;;4.70;2.60;;;;;;;4.56;83.26;100633.59;115824;1209;62596;-78
2021/04/10 04:09:23;;;;;;;8.70;3.53;;;;;;;4.53;83.70;100639.09;115834;1209;62511;-78
2021/04/10 04:11:52;;;;;;;7.97;3.77;;;;;;;4.52;83.33;100640.08;115843;1209;62175;-78
2021/04/10 04:14:19;;;;;;;7.90;3.47;;;;;;;4.50;83.61;100648.09;115846;1209;63895;-78
2021/04/10 04:16:46;;;;;;;9.10;2.85;;;;;;;4.48;84.58;100642.99;115754;1209;62237;-77
2021/04/10 04:19:12;;;;;;;9.40;4.85;;;;;;;4.47;83.59;100643.12;115782;1209;62158;-78
2021/04/10 04:21:39;;;;;;;7.50;3.80;;;;;;;4.45;83.79;100640.63;115818;1209;62306;-78
2021/04/10 04:24:06;;;;;;;7.55;3.95;;;;;;;4.45;84.58;100647.68;115832;1209;62548;-78
2021/04/10 04:26:32;;;;;;;13.53;5.20;;;;;;;4.46;84.22;100644.07;115796;1209;62129;-78
2021/04/10 04:28:59;;;;;;;13.05;4.40;;;;;;;4.46;84.23;100649.33;115759;1209;63479;-79
2021/04/10 04:31:25;;;;;;;6.40;3.23;;;;;;;4.45;83.96;100655.56;115748;1209;62546;-78
2021/04/10 04:33:52;;;;;;;8.03;3.27;;;;;;;4.45;84.83;100653.75;115821;1209;62264;-78
2021/04/10 04:36:18;;;;;;;9.97;3.47;;;;;;;4.45;84.16;100663.44;115802;1209;62496;-77
2021/04/10 04:38:45;;;;;;;5.83;3.30;;;;;;;4.44;84.68;100667.87;115858;1209;62542;-77
2021/04/10 04:41:12;;;;;;;8.07;3.53;;;;;;;4.43;83.98;100670.63;115791;1209;62585;-78
2021/04/10 04:43:39;;;;;;;11.73;3.90;;;;;;;4.42;84.41;100661.92;115789;1209;62428;-76
2021/04/10 04:46:05;;;;;;;7.27;2.60;;;;;;;4.40;84.67;100669.10;115801;1209;62462;-78
2021/04/10 04:48:32;;;;;;;7.53;2.80;;;;;;;4.38;84.66;100678.91;115784;1209;62727;-79
2021/04/10 04:50:58;;;;;;;6.50;2.00;;;;;;;4.37;84.43;100686.92;115839;1209;62852;-79
2021/04/10 04:53:25;;;;;;;6.57;3.40;;;;;;;4.37;84.98;100697.42;115804;1209;63259;-79
2021/04/10 04:55:51;;;;;;;7.03;3.37;;;;;;;4.37;84.58;100686.92;115784;1209;63333;-79
2021/04/10 04:58:18;;;;;;;11.57;4.47;;;;;;;4.39;84.56;100690.24;115837;1209;62527;-78
2021/04/10 05:00:44;;;;;;;10.33;3.77;;;;;;;4.41;84.50;100693.56;115842;1209;62885;-79
2021/04/10 05:03:11;;;;;;;8.17;3.70;;;;;;;4.43;84.25;100695.09;115829;1209;62826;-79
2021/04/10 05:05:38;;;;;;;11.77;4.10;;;;;;;4.41;84.58;100691.77;115773;1209;62562;-78
2021/04/10 05:08:04;;;;;;;9.70;3.80;;;;;;;4.44;85.09;100698.53;115865;1209;62538;-79
2021/04/10 05:10:34;;;;;;;13.25;3.45;;;;;;;4.46;84.20;100707.11;115789;1209;62670;-77
2021/04/10 05:13:01;;;;;;;9.90;3.27;;;;;;;4.45;84.90;100706.29;115756;1208;62480;-78
2021/04/10 05:15:28;;;;;;;5.27;2.63;;;;;;;4.45;84.56;100706.29;115847;1209;62509;-78
2021/04/10 05:17:54;;;;;;;3.33;1.97;;;;;;;4.41;84.52;100712.77;115752;1209;62383;-78
2021/04/10 05:20:21;;;;;;;7.55;3.00;;;;;;;4.39;84.70;100722.58;115784;1209;62718;-78
2021/04/10 05:22:55;;;;;;;3.63;2.00;;;;;;;4.36;84.73;100722.86;115777;1209;62323;-78
2021/04/10 05:25:22;;;;;;;6.10;3.00;;;;;;;4.35;84.02;100721.19;115847;1209;62242;-78
2021/04/10 05:27:52;;;;;;;5.77;3.03;;;;;;;4.38;84.86;100725.33;115813;1209;62977;-78
2021/04/10 05:30:20;;;;;;;9.73;3.60;;;;;;;4.41;83.94;100725.91;115850;1209;62446;-79
2021/04/10 05:32:47;;;;;;;10.80;3.20;;;;;;;4.44;84.45;100730.05;115819;1209;63053;-78
2021/04/10 05:35:15;;;;;;;11.10;3.05;;;;;;;4.45;84.63;100721.23;115733;1209;62494;-78
2021/04/10 05:37:43;;;;;;;10.60;3.70;;;;;;;4.47;84.31;100725.38;115856;1209;62670;-79
2021/04/10 05:40:10;;;;;;;5.47;2.10;;;;;;;4.48;84.71;100732.30;115884;1209;62890;-77
2021/04/10 05:42:37;;;;;;;6.90;2.57;;;;;;;4.46;84.17;100734.23;115856;1209;62968;-78
2021/04/10 05:45:04;;;;;;;3.43;1.70;;;;;;;4.42;84.81;100740.72;115835;1209;62339;-77
2021/04/10 05:47:31;;;;;;;4.97;2.20;;;;;;;4.38;85.14;100746.34;115820;1209;62126;-78
2021/04/10 05:49:58;;;;;;;9.05;2.60;;;;;;;4.37;84.67;100735.02;115826;1209;62329;-78
2021/04/10 05:52:24;;;;;;;8.03;3.00;;;;;;;4.39;84.71;100754.09;115777;1209;62381;-77
2021/04/10 05:54:51;;;;;;;10.30;4.40;;;;;;;4.41;85.32;100751.34;115830;1209;62291;-78
2021/04/10 05:57:17;;;;;;;10.43;2.97;;;;;;;4.44;84.59;100746.67;115766;1209;62518;-79
2021/04/10 05:59:44;;;;;;;5.43;2.90;;;;;;;4.52;85.15;100748.61;115799;1209;62607;-79
2021/04/10 06:02:11;;;;;;;7.20;2.90;;;;;;;4.55;84.61;100744.88;115799;1209;62191;-80
2021/04/10 06:04:38;;;;;;;13.90;3.80;;;;;;;4.59;84.61;100757.63;115955;1209;63038;-78
2021/04/10 06:07:05;;;;;;;3.83;2.43;;;;;;;4.61;84.70;100754.84;115821;1209;62895;-79
2021/04/10 06:09:31;;;;;;;3.80;1.93;;;;;;;4.57;84.90;100761.33;115831;1209;64033;-78
2021/04/10 06:11:58;;;;;;;4.87;1.47;;;;;;;4.48;84.58;100762.97;115790;1209;62399;-79
2021/04/10 06:14:25;;;;;;;5.53;2.07;;;;;;;4.45;84.52;100760.63;115817;1209;63864;-78
2021/04/10 06:16:52;;;;;;;2.83;1.33;;;;;;;4.44;85.70;100756.32;115764;1209;62543;-79
2021/04/10 06:19:20;;;;;;;8.03;2.10;;;;;;;4.42;85.36;100760.88;115790;1209;63517;-80
2021/04/10 06:21:47;;;;;;;7.17;2.37;;;;;;;4.37;85.31;100766.53;115778;1209;62239;-80
2021/04/10 06:24:15;;;;;;;6.73;2.00;;;;;;;4.36;85.89;100769.31;115773;1209;62696;-79
2021/04/10 06:26:43;;;;;;;6.57;2.87;;;;;;;4.36;85.04;100770.14;115842;1209;62607;-80
2021/04/10 06:29:10;;;;;;;7.90;3.00;;;;;;;4.41;85.93;100772.36;115835;1209;64300;-75
2021/04/10 06:31:38;;;;;;;6.73;2.70;;;;;;;4.45;85.13;100776.39;115753;1209;62259;-76
2021/04/10 06:34:05;;;;;;;4.67;2.30;;;;;;;4.45;85.17;100782.46;115788;1209;64012;-77
2021/04/10 06:36:32;;;;;;;5.90;3.23;;;;;;;4.47;85.20;100791.05;115731;1209;62832;-77
2021/04/10 06:38:58;;;;;;;4.20;1.35;;;;;;;4.45;85.11;100779.84;115760;1209;64237;-76
2021/04/10 06:41:28;;;;;;;9.07;3.00;;;;;;;4.47;85.38;100782.34;115700;1209;64215;-76
2021/04/10 06:43:54;;;;;;;4.43;1.83;;;;;;;4.49;85.47;100783.86;115728;1209;62506;-76
2021/04/10 06:46:23;;;;;;;10.60;3.80;;;;;;;4.54;84.83;100788.71;115649;1209;62429;-76
2021/04/10 06:48:54;;;;;;;7.20;3.00;;;;;;;4.62;85.16;100790.68;115715;1209;63956;-77
2021/04/10 06:51:21;;;;;;;11.07;3.10;;;;;;;4.65;85.05;100782.52;115747;1209;62721;-77
2021/04/10 06:53:48;;;;;;;14.03;4.00;;;;;;;4.72;85.04;100790.69;115777;1209;62336;-77
2021/04/10 06:56:21;;;;;;;13.60;3.20;;;;;;;4.75;84.81;100793.89;115814;1209;62513;-77
2021/04/10 06:58:51;;;;;;;7.15;3.15;;;;;;;4.81;84.77;100800.41;115674;1209;62586;-77
2021/04/10 07:01:19;;;;;;;4.80;2.87;;;;;;;4.84;84.24;100808.02;115784;1209;62539;-77
2021/04/10 07:03:49;;;;;;;6.13;2.10;;;;;;;4.86;84.37;100806.91;115770;1209;62205;-77
2021/04/10 07:06:17;;;;;;;6.70;2.53;;;;;;;4.84;84.15;100813.27;115766;1209;62344;-76
2021/04/10 07:08:44;;;;;;;9.27;3.37;;;;;;;4.87;84.39;100810.39;115765;1209;62504;-76
2021/04/10 07:11:15;;;;;;;9.05;3.20;;;;;;;4.91;83.97;100817.05;115836;1209;62387;-76
2021/04/10 07:13:43;;;;;;;11.60;3.40;;;;;;;4.96;83.85;100814.00;115770;1209;63075;-76
2021/04/10 07:16:11;;;;;;;7.10;3.40;;;;;;;5.01;84.00;100815.24;115817;1209;64365;-76
2021/04/10 07:18:38;;;;;;;7.73;3.13;;;;;;;5.02;84.01;100816.09;115794;1209;62914;-76
2021/04/10 07:21:16;;;;;;;7.00;2.35;;;;;;;5.03;83.60;100820.38;115810;1209;62172;-76
2021/04/10 07:23:55;;;;;;;11.53;3.33;;;;;;;5.03;83.06;100815.11;115734;1209;62279;-76
2021/04/10 07:26:47;;;;;;;12.33;3.63;;;;;;;5.07;83.84;100819.14;115802;1209;62458;-80
2021/04/10 07:29:33;;;;;;;14.30;3.50;;;;;;;5.10;83.42;100821.52;115808;1209;62586;-76
2021/04/10 07:32:01;;;;;;;12.37;3.80;;;;;;;5.12;82.93;100830.06;115858;1209;62998;-79
2021/04/10 07:34:28;;;;;;;9.50;3.60;;;;;;;5.14;83.05;100830.76;115765;1209;62664;-79
2021/04/10 07:37:00;;;;;;;5.37;1.83;;;;;;;5.14;83.67;100833.39;115783;1207;62494;-79
2021/04/10 07:39:28;;;;;;;12.85;3.60;;;;;;;5.15;82.72;100832.44;115812;1209;63183;-78
2021/04/10 07:42:02;;;;;;;6.57;3.40;;;;;;;5.18;83.60;100829.52;116021;1209;62063;-79
2021/04/10 07:44:39;;;;;;;6.85;2.73;;;;;;;5.22;83.02;100836.17;115971;1209;62932;-79
2021/04/10 07:47:08;;;;;;;8.50;3.05;;;;;;;5.23;82.42;100843.11;115805;1209;63039;-79
2021/04/10 07:49:36;;;;;;;6.85;3.00;;;;;;;5.24;82.45;100843.94;115846;1209;62694;-79
2021/04/10 07:52:05;;;;;;;10.67;4.03;;;;;;;5.25;83.36;100856.13;115816;1209;62489;-79
2021/04/10 07:54:43;;;;;;;9.57;4.33;;;;;;;5.30;82.67;100852.11;115901;1209;62148;-79
2021/04/10 07:57:11;;;;;;;16.70;4.20;;;;;;;5.34;82.52;100855.30;115977;1209;63236;-79
2021/04/10 07:59:56;;;;;;;12.53;4.97;;;;;;;5.39;83.09;100853.08;115988;1209;62656;-79
2021/04/10 08:02:23;;;;;;;10.47;3.30;;;;;;;5.45;82.80;100847.27;115970;1208;62237;-79
2021/04/10 08:04:57;;;;;;;5.27;2.50;;;;;;;5.48;82.19;100840.90;115996;1209;62293;-79
2021/04/10 08:07:31;;;;;;;10.85;4.18;;;;;;;5.47;82.15;100850.59;115848;1209;62592;-79
2021/04/10 08:10:02;;;;;;;10.00;4.97;;;;;;;5.46;82.35;100854.22;115831;1209;62467;-79
2021/04/10 08:12:31;;;;;;;9.97;4.67;;;;;;;5.47;82.32;100857.67;115832;1209;62349;-79
2021/04/10 08:14:59;;;;;;;7.10;3.20;;;;;;;5.49;81.60;100858.36;115837;1209;62914;-79
2021/04/10 08:17:40;;;;;;;10.60;4.30;;;;;;;5.54;82.01;100861.40;115873;1209;62423;-79
2021/04/10 08:20:16;;;;;;;15.50;5.00;;;;;;;5.59;81.24;100858.34;115786;1209;62253;-80
2021/04/10 08:22:43;;;;;;;12.13;4.60;;;;;;;5.63;81.81;100865.85;115792;1209;62728;-80
2021/04/10 08:25:11;;;;;;;9.50;2.80;;;;;;;5.69;81.77;100865.27;115822;1209;62981;-79
2021/04/10 08:27:40;;;;;;;12.65;4.10;;;;;;;5.72;81.34;100874.72;115839;1209;63395;-80
2021/04/10 08:30:11;;;;;;;10.73;4.90;;;;;;;5.76;81.29;100875.25;115792;1209;61937;-78
2021/04/10 08:32:38;;;;;;;12.40;4.43;;;;;;;5.79;81.30;100877.62;115853;1209;62230;-77
2021/04/10 08:35:04;;;;;;;8.33;3.43;;;;;;;5.83;81.28;100879.83;115811;1209;62228;-78
2021/04/10 08:37:31;;;;;;;13.97;4.40;;;;;;;5.91;80.82;100879.97;115771;1209;62603;-79
2021/04/10 08:39:58;;;;;;;11.23;4.70;;;;;;;6.02;80.66;100892.18;115803;1209;62482;-79
2021/04/10 08:42:26;;;;;;;8.80;4.20;;;;;;;6.10;80.45;100889.68;115820;1209;62576;-79
2021/04/10 08:44:55;;;;;;;14.50;4.70;;;;;;;6.17;80.42;100899.66;115813;1209;62202;-79
2021/04/10 08:47:22;;;;;;;17.13;4.90;;;;;;;6.20;80.19;100899.36;115854;1209;63050;-79
2021/04/10 08:49:51;;;;;;;9.53;4.47;;;;;;;6.22;79.34;100898.23;115757;1209;62340;-79
2021/04/10 08:52:28;;;;;;;11.60;3.67;;;;;;;6.21;79.57;100901.03;115847;1209;62328;-79
2021/04/10 08:54:58;;;;;;;9.27;4.47;;;;;;;6.24;79.05;100900.73;115834;1209;62363;-79
2021/04/10 08:57:39;;;;;;;14.97;5.43;;;;;;;6.22;79.16;100910.59;115795;1209;62465;-79
2021/04/10 09:00:19;;;;;;;13.73;6.00;;;;;;;6.25;79.32;100905.88;115822;1209;62248;-78
2021/04/10 09:02:58;;;;;;;18.30;7.20;;;;;;;6.32;79.48;100911.41;115802;1209;62533;-79
2021/04/10 09:05:44;;;;;;;19.40;7.27;;;;;;;6.37;78.73;100909.16;115808;1209;62451;-78
2021/04/10 09:08:24;;;;;;;13.67;5.47;;;;;;;6.41;78.47;100913.17;115826;1209;62152;-79
2021/04/10 09:10:53;;;;;;;14.50;4.73;;;;;;;6.41;78.45;100913.17;115781;1209;62365;-77
2021/04/10 09:13:22;;;;;;;10.77;4.37;;;;;;;6.42;78.02;100921.91;115810;1209;64972;-77
2021/04/10 09:15:49;;;;;;;15.60;5.80;;;;;;;6.45;78.67;100927.73;115766;1209;62583;-76
2021/04/10 09:18:16;;;;;;;16.37;5.73;;;;;;;6.52;78.16;100925.35;115811;1209;62235;-77
2021/04/10 09:20:45;;;;;;;13.40;6.43;;;;;;;6.57;78.15;100923.14;115785;1209;62335;-77
2021/04/10 09:23:18;;;;;;;9.17;3.50;;;;;;;6.62;78.36;100931.44;115859;1209;62116;-77
2021/04/10 09:25:45;;;;;;;8.70;5.10;;;;;;;6.65;77.54;100932.95;115824;1209;62968;-76
2021/04/10 09:28:12;;;;;;;9.13;5.13;;;;;;;6.67;78.59;100929.22;115771;1209;62208;-76
2021/04/10 09:30:39;;;;;;;10.90;4.50;;;;;;;6.70;77.80;100933.36;115791;1209;62255;-77
2021/04/10 09:33:33;;;;;;;11.40;5.90;;;;;;;6.76;77.90;100937.21;115795;1209;62688;-76
2021/04/10 09:36:00;;;;;;;10.67;4.90;;;;;;;6.83;77.25;100944.41;115813;1209;62584;-76
2021/04/10 09:38:57;;;;;;;11.27;4.90;;;;;;;6.92;77.01;100946.17;115778;1209;62693;-77
2021/04/10 09:41:50;;;;;;;13.37;6.57;;;;;;;7.05;77.19;100950.30;115713;1209;62151;-77
2021/04/10 09:44:16;;;;;;;7.83;4.17;;;;;;;7.20;76.65;100950.64;115832;1209;62184;-75
2021/04/10 09:46:54;;;;;;;12.57;4.07;;;;;;;7.36;75.93;100948.20;115786;1209;62655;-77
2021/04/10 09:49:39;;;;;;;8.77;5.07;;;;;;;7.47;75.76;100952.44;115869;1209;62310;-76
2021/04/10 09:52:06;;;;;;;13.15;6.25;;;;;;;7.65;75.60;100945.39;115812;1209;62427;-76
2021/04/10 09:54:33;;;;;;;15.67;6.60;;;;;;;7.87;75.25;100951.20;115806;1209;62356;-75
2021/04/10 09:57:00;;;;;;;5.50;3.45;;;;;;;7.99;73.62;100942.08;115816;1209;62308;-75
2021/04/10 09:59:27;;;;;;;10.57;3.97;;;;;;;8.11;74.03;100945.30;115822;1209;62601;-80
2021/04/10 10:01:54;;;;;;;13.30;5.00;;;;;;;8.22;72.97;100941.58;115832;1209;62523;-79
2021/04/10 10:04:20;;;;;;;10.15;5.15;;;;;;;8.34;73.27;100948.28;115824;1209;62868;-79
2021/04/10 10:06:49;;;;;;;12.15;5.65;;;;;;;8.43;72.40;100950.02;115812;1209;62562;-77
2021/04/10 10:09:28;;;;;;;10.03;4.40;;;;;;;8.56;70.87;100946.97;115796;1209;62865;-76
2021/04/10 10:11:57;;;;;;;9.50;3.93;;;;;;;8.67;70.52;100936.16;115813;1209;62614;-76
2021/04/10 10:14:24;;;;;;;10.00;4.40;;;;;;;8.79;69.75;100939.34;115824;1209;62504;-77
2021/04/10 10:16:53;;;;;;;8.73;4.37;;;;;;;8.91;68.53;100942.55;115852;1209;63017;-77
2021/04/10 10:19:21;;;;;;;11.23;4.60;;;;;;;9.04;67.87;100948.23;115865;1209;62479;-77
2021/04/10 10:21:47;;;;;;;14.23;5.40;;;;;;;9.21;69.32;100949.13;115777;1209;62892;-77
2021/04/10 10:24:20;;;;;;;10.25;5.60;;;;;;;9.30;67.88;100942.86;115842;1209;62331;-77
2021/04/10 10:26:47;;;;;;;16.00;5.35;;;;;;;9.33;67.47;100945.21;115802;1209;62449;-77
2021/04/10 10:29:15;;;;;;;9.97;4.07;;;;;;;9.41;67.76;100943.56;115840;1209;63359;-77
2021/04/10 10:31:53;;;;;;;8.77;4.90;;;;;;;9.42;67.79;100951.35;115812;1209;62346;-76
2021/04/10 10:34:24;;;;;;;12.20;6.00;;;;;;;9.39;66.52;100946.36;115921;1209;62230;-77
2021/04/10 10:36:54;;;;;;;6.13;3.30;;;;;;;9.33;66.18;100952.33;115838;1209;62347;-77
2021/04/10 10:39:27;;;;;;;13.90;5.07;;;;;;;9.36;66.51;100947.52;115858;1209;62225;-78
2021/04/10 10:41:55;;;;;;;11.27;4.03;;;;;;;9.37;66.39;100953.64;115799;1209;63387;-76
2021/04/10 10:44:21;;;;;;;12.33;4.13;;;;;;;9.30;65.94;100945.52;115822;1209;62396;-77
2021/04/10 10:47:05;;;;;;;13.30;5.43;;;;;;;9.29;66.42;100951.81;115692;1209;63832;-77
2021/04/10 10:49:33;;;;;;;11.65;5.40;;;;;;;9.37;66.66;100948.34;115793;1209;62533;-77
2021/04/10 10:52:00;;;;;;;11.63;5.03;;;;;;;9.49;66.52;100943.59;115771;1209;62706;-77
2021/04/10 10:54:35;;;;;;;7.63;4.43;;;;;;;9.57;65.88;100943.61;115794;1209;62333;-76
2021/04/10 10:57:10;;;;;;;9.20;4.05;;;;;;;9.68;65.62;100940.64;115795;1209;62502;-76
2021/04/10 10:59:57;;;;;;;8.63;4.87;;;;;;;9.87;64.59;100928.09;115768;1209;62723;-77
2021/04/10 11:02:24;;;;;;;13.20;4.87;;;;;;;10.09;64.68;100935.38;115797;1209;62434;-76
2021/04/10 11:04:53;;;;;;;13.90;4.80;;;;;;;10.30;63.75;100926.13;115779;1209;62449;-77
2021/04/10 11:07:25;;;;;;;13.07;4.87;;;;;;;10.53;62.55;100924.43;115841;1209;62500;-76
2021/04/10 11:09:53;;;;;;;10.63;4.77;;;;;;;10.76;63.18;100929.84;115808;1209;62552;-77
2021/04/10 11:12:22;;;;;;;10.93;4.53;;;;;;;10.99;61.28;100940.56;115816;1209;62313;-77
2021/04/10 11:14:57;;;;;;;10.40;4.30;;;;;;;10.97;60.04;100928.47;115860;1209;62434;-77
2021/04/10 11:17:29;;;;;;;8.90;4.83;;;;;;;11.04;59.93;100931.26;115853;1209;62242;-77
2021/04/10 11:19:58;;;;;;;10.47;4.33;;;;;;;10.99;59.25;100937.09;115851;1209;63169;-77
2021/04/10 11:22:26;;;;;;;11.73;3.77;;;;;;;10.92;58.58;100938.75;115819;1209;62512;-77
2021/04/10 11:24:52;;;;;;;6.90;3.25;;;;;;;10.78;58.55;100943.78;115844;1209;62399;-77
2021/04/10 11:27:25;;;;;;;6.63;3.47;;;;;;;10.72;58.58;100940.98;115835;1209;62200;-77
2021/04/10 11:29:58;;;;;;;13.13;5.17;;;;;;;10.60;58.98;100943.15;115851;1209;62343;-77
2021/04/10 11:32:40;;;;;;;8.75;3.00;;;;;;;10.60;58.62;100940.50;115833;1209;63870;-77
2021/04/10 11:35:08;;;;;;;8.23;3.40;;;;;;;10.69;59.91;100938.65;115813;1209;62656;-77